Augsburg, Illinois
Current Conditions -  °F | °C
As of 8:35 PM on Wednesday 26 Nov 2014 (Local Time) from KENL Reporting Station
Light Snow Light Snow  
Wind Chill: 32°   Ceiling: 500
Heat Index: 32°   Visibility: 2.5mi
Dew Point: 31°   Wind: 3mph
Humidity: 96%   Direction: 60°ENE
Pressure: 30.07"   Gusts: NA
Location:  38.8463°N, 89.0894°W
Report Text: KENL 270235Z AUTO 06003KT 2 1/2SM -SN OVC005 00/M01 A3007 RMK AO2 T00001006
Loading
Personal Weather Stations






























Interactive Weather Map New forecast layout! Learn more

10-Day Weather Forecast

Advertisements
Track Severe Weather on mobile